createdAt,value
2022-08-03T00:00:50.032Z,21.30
2022-08-03T00:03:38.221Z,21.30
2022-08-03T00:06:26.478Z,21.30
2022-08-03T00:09:16.009Z,21.20
2022-08-03T00:12:04.288Z,21.10
2022-08-03T00:14:52.545Z,21.10
2022-08-03T00:17:53.080Z,21.00
2022-08-03T00:20:42.945Z,21.00
2022-08-03T00:23:51.921Z,20.90
2022-08-03T00:26:40.921Z,20.90
2022-08-03T00:29:29.197Z,20.90
2022-08-03T00:32:17.540Z,20.80
2022-08-03T00:35:10.560Z,20.80
2022-08-03T00:38:01.778Z,20.70
2022-08-03T00:40:50.001Z,20.70
2022-08-03T00:43:39.681Z,20.70
2022-08-03T00:46:27.864Z,20.70
2022-08-03T00:49:16.140Z,20.60
2022-08-03T00:52:09.643Z,20.60
2022-08-03T00:54:58.201Z,20.60
2022-08-03T00:57:47.301Z,20.50
2022-08-03T01:00:38.870Z,20.50
2022-08-03T01:03:27.076Z,20.40
2022-08-03T01:06:19.451Z,20.40
2022-08-03T01:09:14.914Z,20.30
2022-08-03T01:12:11.599Z,20.30
2022-08-03T01:15:08.389Z,20.30
2022-08-03T01:18:05.636Z,20.30
2022-08-03T01:20:57.578Z,20.40
2022-08-03T01:24:00.041Z,20.40
2022-08-03T01:27:06.224Z,20.50
2022-08-03T01:30:05.950Z,20.50
2022-08-03T01:33:01.784Z,20.50
2022-08-03T01:36:03.084Z,20.50
2022-08-03T01:38:55.218Z,20.50
2022-08-03T01:41:48.888Z,20.50
2022-08-03T01:44:41.372Z,20.50
2022-08-03T01:47:32.676Z,20.50
2022-08-03T01:50:24.791Z,20.50
2022-08-03T01:53:15.488Z,20.50
2022-08-03T01:56:05.208Z,20.40
2022-08-03T01:58:55.156Z,20.40
2022-08-03T02:02:28.487Z,20.40
2022-08-03T02:04:57.555Z,20.30
2022-08-03T02:07:48.012Z,20.20
2022-08-03T02:10:37.327Z,20.20
2022-08-03T02:13:27.214Z,20.20
2022-08-03T02:16:15.842Z,20.10
2022-08-03T02:19:07.343Z,20.10
2022-08-03T02:22:01.350Z,20.10
2022-08-03T02:24:51.273Z,20.00
2022-08-03T02:27:44.067Z,20.00
2022-08-03T02:30:37.831Z,19.90
2022-08-03T02:33:29.448Z,19.90
2022-08-03T02:36:21.313Z,19.80
2022-08-03T02:39:14.793Z,19.80
2022-08-03T02:42:03.351Z,19.80
2022-08-03T02:44:54.261Z,19.70
2022-08-03T02:47:53.892Z,19.70
2022-08-03T02:50:45.563Z,19.70
2022-08-03T02:53:35.584Z,19.60
2022-08-03T02:56:26.575Z,19.60
2022-08-03T02:59:15.814Z,19.50
2022-08-03T03:02:04.364Z,19.50
2022-08-03T03:05:51.852Z,19.50
2022-08-03T03:08:02.987Z,19.50
2022-08-03T03:10:55.906Z,19.50
2022-08-03T03:13:47.416Z,19.50
2022-08-03T03:16:36.964Z,19.50
2022-08-03T03:19:26.396Z,19.50
2022-08-03T03:22:15.797Z,19.50
2022-08-03T03:25:04.499Z,19.50
2022-08-03T03:27:53.202Z,19.50
2022-08-03T03:30:43.451Z,19.50
2022-08-03T03:33:31.820Z,19.40
2022-08-03T03:36:20.288Z,19.40
2022-08-03T03:39:15.968Z,19.40
2022-08-03T03:42:05.565Z,19.40
2022-08-03T03:44:54.033Z,19.30
2022-08-03T03:47:43.622Z,19.30
2022-08-03T03:50:33.125Z,19.30
2022-08-03T03:53:21.646Z,19.30
2022-08-03T03:56:09.830Z,19.20
2022-08-03T03:58:58.139Z,19.20
2022-08-03T04:01:46.693Z,19.20
2022-08-03T04:04:54.666Z,19.20
2022-08-03T04:08:14.211Z,19.20
2022-08-03T04:11:10.124Z,19.20
2022-08-03T04:14:02.830Z,19.10
2022-08-03T04:16:54.505Z,19.10
2022-08-03T04:19:51.232Z,19.20
2022-08-03T04:22:42.026Z,19.30
2022-08-03T04:25:36.311Z,19.30
2022-08-03T04:28:30.386Z,19.30
2022-08-03T04:31:23.004Z,19.30
2022-08-03T04:34:11.430Z,19.40
2022-08-03T04:37:07.096Z,19.40
2022-08-03T04:39:59.325Z,19.40
2022-08-03T04:42:49.856Z,19.40
2022-08-03T04:45:39.695Z,19.40
2022-08-03T04:48:28.371Z,19.30
2022-08-03T04:51:17.250Z,19.40
2022-08-03T04:54:07.323Z,19.40
2022-08-03T04:56:55.501Z,19.40
2022-08-03T04:59:43.799Z,19.50
2022-08-03T05:02:32.470Z,19.50
2022-08-03T05:05:21.061Z,19.50
2022-08-03T05:08:11.391Z,19.50
2022-08-03T05:11:00.999Z,19.60
2022-08-03T05:13:49.461Z,19.60
2022-08-03T05:16:37.703Z,19.60
2022-08-03T05:19:26.739Z,19.70
2022-08-03T05:22:15.229Z,19.70
2022-08-03T05:25:03.970Z,19.70
2022-08-03T05:27:53.561Z,19.80
2022-08-03T05:30:41.775Z,19.80
2022-08-03T05:33:30.026Z,19.90
2022-08-03T05:36:18.457Z,19.90
2022-08-03T05:39:06.929Z,20.00
2022-08-03T05:41:55.214Z,20.10
2022-08-03T05:44:44.799Z,20.10
2022-08-03T05:47:33.094Z,20.20
2022-08-03T05:50:21.985Z,20.20
2022-08-03T05:53:10.226Z,20.30
2022-08-03T05:56:03.498Z,20.30
2022-08-03T05:59:22.382Z,20.40
2022-08-03T06:02:13.399Z,20.50
2022-08-03T06:05:01.850Z,20.50
2022-08-03T06:07:50.335Z,20.60
2022-08-03T06:10:38.661Z,20.70
2022-08-03T06:13:26.947Z,20.70
2022-08-03T06:16:15.207Z,20.80
2022-08-03T06:19:05.365Z,20.80
2022-08-03T06:21:53.701Z,20.90
2022-08-03T06:24:42.658Z,21.00
2022-08-03T06:27:41.874Z,21.10
2022-08-03T06:30:30.090Z,21.20
2022-08-03T06:33:18.397Z,21.30
2022-08-03T06:36:08.463Z,21.40
2022-08-03T06:39:00.899Z,21.50
2022-08-03T06:41:49.194Z,21.60
2022-08-03T06:44:38.669Z,21.70
2022-08-03T06:47:26.905Z,21.80
2022-08-03T06:50:17.502Z,21.90
2022-08-03T06:53:09.049Z,21.90
2022-08-03T06:56:07.123Z,22.00
2022-08-03T06:58:55.529Z,22.10
2022-08-03T07:01:43.768Z,22.20
2022-08-03T07:04:32.086Z,22.40
2022-08-03T07:07:20.580Z,22.50
2022-08-03T07:10:11.572Z,22.60
2022-08-03T07:12:59.819Z,22.60
2022-08-03T07:15:55.430Z,22.70
2022-08-03T07:18:44.625Z,22.70
2022-08-03T07:21:32.811Z,22.80
2022-08-03T07:24:20.986Z,22.90
2022-08-03T07:27:10.746Z,23.00
2022-08-03T07:29:59.995Z,23.10
2022-08-03T07:32:50.682Z,23.20
2022-08-03T07:35:39.116Z,23.30
2022-08-03T07:38:27.481Z,23.30
2022-08-03T07:41:15.898Z,23.40
2022-08-03T07:44:05.869Z,23.50
2022-08-03T07:46:54.110Z,23.60
2022-08-03T07:49:45.131Z,23.80
2022-08-03T07:52:53.454Z,23.80
2022-08-03T07:55:42.384Z,24.00
2022-08-03T07:58:30.603Z,24.00
2022-08-03T08:01:21.790Z,24.10
2022-08-03T08:04:09.996Z,24.20
2022-08-03T08:06:58.270Z,24.20
2022-08-03T08:09:46.794Z,24.40
2022-08-03T08:12:35.060Z,24.40
2022-08-03T08:15:23.459Z,24.60
2022-08-03T08:18:13.037Z,24.70
2022-08-03T08:21:03.298Z,24.70
2022-08-03T08:23:57.041Z,24.80
2022-08-03T08:26:46.185Z,24.80
2022-08-03T08:29:34.969Z,24.90
2022-08-03T08:32:23.203Z,24.90
2022-08-03T08:35:13.394Z,25.00
2022-08-03T08:38:04.099Z,25.10
2022-08-03T08:40:56.774Z,25.20
2022-08-03T08:43:45.109Z,25.40
2022-08-03T08:46:34.542Z,25.50
2022-08-03T08:49:28.358Z,25.60
2022-08-03T08:52:25.356Z,25.60
2022-08-03T08:55:22.598Z,25.60
2022-08-03T08:58:13.003Z,25.70
2022-08-03T09:01:09.293Z,25.70
2022-08-03T09:03:57.594Z,25.80
2022-08-03T09:06:58.853Z,25.80
2022-08-03T09:10:10.026Z,25.90
2022-08-03T09:13:01.447Z,26.00
2022-08-03T09:16:09.938Z,26.00
2022-08-03T09:19:13.510Z,26.10
2022-08-03T09:22:14.013Z,26.20
2022-08-03T09:28:57.225Z,26.20
2022-08-03T09:31:32.000Z,26.30
2022-08-03T09:34:25.947Z,26.40
2022-08-03T09:37:16.253Z,26.40
2022-08-03T09:40:08.349Z,26.40
2022-08-03T09:42:58.958Z,26.50
2022-08-03T09:45:47.316Z,26.50
2022-08-03T09:48:37.206Z,26.60
2022-08-03T09:51:33.139Z,26.60
2022-08-03T09:54:34.626Z,26.60
2022-08-03T09:57:27.150Z,26.70
2022-08-03T10:00:18.048Z,26.80
2022-08-03T10:03:06.589Z,26.80
2022-08-03T10:05:59.562Z,26.90
2022-08-03T10:08:48.840Z,27.00
2022-08-03T10:11:41.205Z,27.00
2022-08-03T10:14:32.550Z,27.10
2022-08-03T10:17:21.315Z,27.10
2022-08-03T10:20:11.299Z,27.10
2022-08-03T10:23:00.658Z,27.10
2022-08-03T10:25:53.643Z,27.20
2022-08-03T10:28:48.343Z,27.20
2022-08-03T10:31:57.391Z,27.30
2022-08-03T10:34:47.667Z,27.40
2022-08-03T10:37:56.866Z,27.40
2022-08-03T10:40:51.804Z,27.50
2022-08-03T10:43:48.998Z,27.50
2022-08-03T10:46:44.732Z,27.60
2022-08-03T10:49:35.635Z,27.60
2022-08-03T10:52:33.710Z,27.70
2022-08-03T10:55:52.460Z,27.70
2022-08-03T10:58:57.483Z,27.70
2022-08-03T11:01:58.855Z,27.80
2022-08-03T11:05:36.669Z,27.80
2022-08-03T11:08:27.905Z,28.00
2022-08-03T11:11:33.931Z,28.00
2022-08-03T11:14:23.856Z,28.00
2022-08-03T11:17:15.517Z,28.10
2022-08-03T11:20:05.394Z,28.20
2022-08-03T11:22:56.671Z,28.20
2022-08-03T11:26:15.866Z,28.30
2022-08-03T11:29:37.398Z,28.40
2022-08-03T11:32:56.233Z,28.50
2022-08-03T11:36:00.986Z,28.60
2022-08-03T11:39:16.891Z,28.60
2022-08-03T11:42:38.782Z,28.70
2022-08-03T11:45:27.956Z,28.90
2022-08-03T11:48:18.245Z,29.00
2022-08-03T11:51:08.579Z,29.10
2022-08-03T11:53:58.210Z,29.10
2022-08-03T11:56:47.732Z,29.20
2022-08-03T11:59:39.611Z,29.30
2022-08-03T12:02:27.986Z,29.40
2022-08-03T12:05:18.964Z,29.50
2022-08-03T12:08:08.111Z,29.50
2022-08-03T12:10:58.521Z,29.60
2022-08-03T12:13:56.586Z,29.70
2022-08-03T12:16:56.634Z,29.80
2022-08-03T12:19:56.719Z,29.90
2022-08-03T12:22:46.384Z,30.00
2022-08-03T12:25:39.373Z,30.10
2022-08-03T12:28:37.649Z,30.20
2022-08-03T12:31:26.539Z,30.30
2022-08-03T12:34:15.181Z,30.40
2022-08-03T12:37:22.176Z,30.40
2022-08-03T12:40:20.564Z,30.50
2022-08-03T12:43:13.963Z,30.60
2022-08-03T12:46:12.508Z,30.80
2022-08-03T12:49:12.046Z,30.90
2022-08-03T12:52:05.511Z,31.00
2022-08-03T12:54:57.260Z,31.20
2022-08-03T12:57:46.889Z,31.20
2022-08-03T13:00:35.409Z,31.20
2022-08-03T13:03:39.037Z,31.30
2022-08-03T13:06:28.300Z,31.40
2022-08-03T13:09:17.311Z,31.50
2022-08-03T13:12:08.776Z,31.70
2022-08-03T13:15:00.208Z,31.80
2022-08-03T13:17:48.534Z,31.90
2022-08-03T13:20:37.319Z,31.90
2022-08-03T13:23:25.604Z,32.00
2022-08-03T13:26:15.403Z,32.10
2022-08-03T13:29:03.655Z,32.20
2022-08-03T13:31:53.260Z,32.30
2022-08-03T13:34:41.549Z,32.40
2022-08-03T13:37:31.972Z,32.60
2022-08-03T13:40:23.496Z,32.60
2022-08-03T13:43:12.525Z,32.80
2022-08-03T13:46:00.719Z,33.00
2022-08-03T13:48:50.300Z,33.00
2022-08-03T13:51:39.010Z,33.10
2022-08-03T13:54:27.288Z,33.20
2022-08-03T13:58:04.544Z,33.40
2022-08-03T14:00:27.555Z,33.50
2022-08-03T14:03:17.078Z,33.60
2022-08-03T14:06:06.782Z,33.60
2022-08-03T14:08:59.045Z,33.70
2022-08-03T14:12:07.976Z,33.70
2022-08-03T14:14:59.613Z,33.90
2022-08-03T14:17:50.296Z,34.10
2022-08-03T14:20:50.158Z,34.10
2022-08-03T14:23:42.731Z,34.40
2022-08-03T14:26:33.010Z,34.90
2022-08-03T14:29:21.251Z,35.10
2022-08-03T14:32:12.906Z,35.30
2022-08-03T16:40:47.014Z,35.60
2022-08-03T16:43:35.712Z,33.20
2022-08-03T16:46:27.271Z,33.10
2022-08-03T16:49:54.831Z,33.00
2022-08-03T16:52:24.665Z,33.00
2022-08-03T16:58:41.800Z,32.80
2022-08-03T17:01:37.780Z,32.80
2022-08-03T17:24:42.261Z,32.70
2022-08-03T17:28:48.530Z,32.40
2022-08-03T17:30:57.159Z,32.30
2022-08-03T17:33:54.909Z,32.20
2022-08-03T17:37:03.844Z,32.10
2022-08-03T17:40:00.485Z,31.90
2022-08-03T17:42:52.124Z,31.80
2022-08-03T17:45:52.572Z,31.70
2022-08-03T17:48:42.773Z,31.60
2022-08-03T17:51:46.519Z,31.50
2022-08-03T17:55:57.534Z,31.40
2022-08-03T17:58:10.525Z,31.30
2022-08-03T18:02:00.761Z,31.20
2022-08-03T18:27:47.631Z,31.00
2022-08-03T18:30:53.433Z,30.00
2022-08-03T18:34:19.021Z,29.90
2022-08-03T18:36:55.852Z,29.80
2022-08-03T18:39:49.864Z,29.70
2022-08-03T18:42:40.011Z,29.60
2022-08-03T18:45:55.935Z,29.50
2022-08-03T18:48:57.807Z,29.30
2022-08-03T18:51:47.690Z,29.20
2022-08-03T18:58:05.414Z,29.00
2022-08-03T19:01:04.303Z,28.90
2022-08-03T19:03:59.627Z,28.80
2022-08-03T19:06:49.751Z,28.70
2022-08-03T19:09:48.962Z,28.60
2022-08-03T19:12:40.465Z,28.50
2022-08-03T19:15:36.999Z,28.40
2022-08-03T19:18:32.084Z,28.30
2022-08-03T19:21:20.610Z,28.30
2022-08-03T19:24:11.188Z,28.10
2022-08-03T19:27:00.622Z,28.00
2022-08-03T19:33:00.852Z,27.80
2022-08-03T19:35:55.472Z,27.70
2022-08-03T19:38:45.801Z,27.60
2022-08-03T19:41:42.306Z,27.60
2022-08-03T19:44:52.083Z,27.40
2022-08-03T19:47:46.613Z,27.30
2022-08-03T19:50:37.287Z,27.30
2022-08-03T19:53:37.231Z,27.20
2022-08-03T19:56:31.917Z,27.10
2022-08-03T19:59:23.393Z,26.90
2022-08-03T20:02:17.533Z,26.90
2022-08-03T20:05:15.340Z,26.80
2022-08-03T20:08:07.517Z,26.70
2022-08-03T20:10:59.629Z,26.60
2022-08-03T20:13:51.531Z,26.60
2022-08-03T20:16:42.598Z,26.50
2022-08-03T20:19:32.743Z,26.40
2022-08-03T20:22:27.820Z,26.40
2022-08-03T20:25:21.256Z,26.30
2022-08-03T20:28:13.614Z,26.30
2022-08-03T20:31:03.246Z,26.20
2022-08-03T20:33:51.410Z,26.20
2022-08-03T20:36:39.634Z,26.10
2022-08-03T20:39:28.194Z,26.00
2022-08-03T20:42:21.858Z,25.90
2022-08-03T20:45:13.901Z,25.90
2022-08-03T20:48:22.176Z,25.90
2022-08-03T20:51:19.357Z,25.80
2022-08-03T20:54:22.850Z,25.70
2022-08-03T20:57:18.289Z,25.70
2022-08-03T21:00:11.793Z,25.60
2022-08-03T21:03:00.023Z,25.50
2022-08-03T21:05:53.576Z,25.50
2022-08-03T21:08:48.202Z,25.50
2022-08-03T21:11:44.137Z,25.40
2022-08-03T21:13:10.281Z,27.90
2022-08-03T21:13:10.648Z,29.10
2022-08-03T21:14:39.733Z,25.40
2022-08-03T21:17:41.687Z,25.40
2022-08-03T21:20:33.548Z,25.30
2022-08-03T21:23:35.015Z,25.20
2022-08-03T21:26:34.435Z,25.20
2022-08-03T21:29:22.853Z,25.10
2022-08-03T21:32:14.100Z,25.00
2022-08-03T21:35:10.422Z,24.90
2022-08-03T21:38:12.611Z,24.90
2022-08-03T21:41:01.758Z,24.80
2022-08-03T21:43:50.045Z,24.80
2022-08-03T21:46:40.787Z,24.80
2022-08-03T21:50:04.980Z,24.70
2022-08-03T21:52:44.456Z,24.70
2022-08-03T21:55:35.365Z,24.60
2022-08-03T21:58:33.306Z,24.50
2022-08-03T22:01:24.695Z,24.40
2022-08-03T22:04:50.786Z,24.40
2022-08-03T22:07:27.078Z,24.40
2022-08-03T22:10:16.699Z,24.30
2022-08-03T22:13:05.014Z,24.20
2022-08-03T22:15:54.350Z,24.20
2022-08-03T22:18:44.878Z,24.20
2022-08-03T22:21:35.413Z,24.10
2022-08-03T22:24:28.233Z,24.10
2022-08-03T22:27:34.231Z,24.00
2022-08-03T22:30:22.803Z,24.00
2022-08-03T22:33:12.684Z,23.90
2022-08-03T22:36:04.657Z,23.90
2022-08-03T22:38:54.154Z,23.90
2022-08-03T22:41:42.750Z,23.80
2022-08-03T22:44:33.180Z,23.80
2022-08-03T22:47:23.651Z,23.80
2022-08-03T22:50:32.916Z,23.70
2022-08-03T22:53:22.999Z,23.80
2022-08-03T22:56:11.821Z,23.70
2022-08-03T22:59:00.058Z,23.60
2022-08-03T23:01:51.648Z,23.60
2022-08-03T23:04:42.119Z,23.60
2022-08-03T23:07:33.457Z,23.50
2022-08-03T23:10:24.736Z,23.50
2022-08-03T23:13:15.245Z,23.40
2022-08-03T23:16:07.212Z,23.40
2022-08-03T23:18:57.042Z,23.30
2022-08-03T23:21:53.551Z,23.30
2022-08-03T23:24:52.781Z,23.30
2022-08-03T23:27:43.301Z,23.30
2022-08-03T23:30:31.769Z,23.20
2022-08-03T23:33:20.013Z,23.10
2022-08-03T23:36:29.555Z,23.10
2022-08-03T23:39:20.464Z,23.10
2022-08-03T23:42:09.903Z,23.10
2022-08-03T23:45:05.634Z,23.00
2022-08-03T23:47:54.501Z,23.00
2022-08-03T23:50:46.688Z,22.90
2022-08-03T23:53:41.722Z,22.90
2022-08-03T23:56:36.425Z,22.80
2022-08-03T23:59:33.098Z,22.80
